M I D A S
Marine Information and Data Acquisition System
Tripno 200 of the Zeeleeuw from 2002-01-18 05:26:21 to 2002-01-18 14:59:22
Back to CruiseResearch ActivitiesStationsMapUnderway DataData graphs

EquipmentUnitsComment
TimeDGPSUTC
LatitudeDGPSDM.mWGS84
LongitudeDGPSDM.mWGS84
TemperatureSBE03/SBE38deg celciusITS90
ConductivitySBE21S/mITS90
SalinitySBE21 Practical Salinity Units
ChlorophylAChelsea fluorimeterg/lCalibrated in Aceton
Missing or incorrect values are displayed as -999
Sea surface data collected by the RV Zeeleeuw from 2002-01-18 05:26:21 to 2002-01-18 14:59:22
                                                                                    Next 1000 lines
Time Latitude Longitude Temperature Conductivity Salinity ChlorophylA
2002-01-18 05:26:31 51°13.687 2°55.905 3.846658 2.676064 27.884225  
2002-01-18 05:26:36 51°13.687 2°55.905 3.845573 2.675764 27.882286  
2002-01-18 05:26:41 51°13.687 2°55.905 3.853476 2.675664 27.884893  
2002-01-18 05:26:46 51°13.687 2°55.905 3.861275 2.675564 27.882995  
2002-01-18 05:26:51 51°13.687 2°55.905 3.89406 2.675264 27.881806  
2002-01-18 05:26:56 51°13.686 2°55.905 3.89406 2.675264 27.881806  
2002-01-18 05:27:01 51°13.686 2°55.905 3.912381 2.673563 27.863807  
2002-01-18 05:27:06 51°13.686 2°55.905 3.924403 2.669961 27.822518  
2002-01-18 05:27:11 51°13.686 2°55.905 3.921772 2.663859 27.753321  
2002-01-18 05:27:16 51°13.686 2°55.905 3.911762 2.657456 27.677724  
2002-01-18 05:27:22 51°13.686 2°55.904 3.901493 2.650453 27.593061  
2002-01-18 05:27:26 51°13.686 2°55.904 3.901493 2.650453 27.593061  
2002-01-18 05:27:31 51°13.686 2°55.904 3.902525 2.636848 27.427746  
2002-01-18 05:27:36 51°13.685 2°55.904 3.892202 2.625745 27.287564  
2002-01-18 05:27:41 51°13.684 2°55.904 3.890912 2.615341 27.156316  
2002-01-18 05:27:46 51°13.683 2°55.904 3.89246 2.607439 27.059588  
2002-01-18 05:27:52 51°13.684 2°55.904 3.910885 2.603138 27.010529  
2002-01-18 05:27:56 51°13.684 2°55.904 3.910885 2.603138 27.010529  
2002-01-18 05:28:01 51°13.684 2°55.904 3.91233 2.600137 26.98066  
2002-01-18 05:28:06 51°13.684 2°55.904 3.899944 2.596336 26.938764  
2002-01-18 05:28:09 51°13.684 2°55.904 3.885078 2.592635 26.900905  
2002-01-18 05:28:17 51°13.683 2°55.904 3.87341 2.589234 26.862129  
2002-01-18 05:28:21 51°13.683 2°55.904 3.875785 2.584033 26.806443  
2002-01-18 05:28:26 51°13.683 2°55.903 3.875785 2.584033 26.806443  
2002-01-18 05:28:31 51°13.683 2°55.903 3.865613 2.581832 26.777761  
2002-01-18 05:28:36 51°13.683 2°55.903 3.867317 2.576831 26.715746  
2002-01-18 05:28:41 51°13.683 2°55.903 3.863806 2.573531 26.679584  
2002-01-18 05:28:45 51°13.683 2°55.903 3.864425 2.57163 26.662957  
2002-01-18 05:28:52 51°13.683 2°55.903 3.860604 2.56913 26.644505  
2002-01-18 05:28:57 51°13.683 2°55.903 3.860604 2.56913 26.644505  
2002-01-18 05:29:02 51°13.683 2°55.902 3.860397 2.56783 26.634705  
2002-01-18 05:29:07 51°13.684 2°55.9 3.869744 2.566529 26.624187  
2002-01-18 05:29:12 51°13.684 2°55.898 3.880071 2.565529 26.615653  
2002-01-18 05:29:17 51°13.685 2°55.895 3.874908 2.565429 26.618811  
2002-01-18 05:29:22 51°13.685 2°55.891 3.879864 2.565629 26.622525  
2002-01-18 05:29:27 51°13.686 2°55.886 3.879864 2.565629 26.622525  
2002-01-18 05:29:32 51°13.686 2°55.88 3.881206 2.565929 26.627379  
2002-01-18 05:29:38 51°13.687 2°55.873 3.886472 2.563829 26.604151  
2002-01-18 05:29:42 51°13.687 2°55.868 3.889311 2.562929 26.591742  
2002-01-18 05:29:47 51°13.687 2°55.86 3.990766 2.562629 26.58546  
2002-01-18 05:29:52 51°13.687 2°55.853 4.037544 2.561529 26.571491  
2002-01-18 05:29:57 51°13.687 2°55.845 4.037544 2.561529 26.571491  
2002-01-18 05:30:02 51°13.687 2°55.837 4.019826 2.560928 26.562509  
2002-01-18 05:30:07 51°13.687 2°55.83 3.986488 2.559728 26.546691  
2002-01-18 05:30:12 51°13.687 2°55.823 3.956485 2.559428 26.541844  
2002-01-18 05:30:17 51°13.687 2°55.815 3.929975 2.560028 26.542967  
2002-01-18 05:30:22 51°13.687 2°55.809 3.912433 2.552127 26.428112  
2002-01-18 05:30:27 51°13.687 2°55.802 3.912433 2.552127 26.428112  
2002-01-18 05:30:32 51°13.686 2°55.794 3.901854 2.544825 26.311853  
2002-01-18 05:30:37 51°13.686 2°55.788 3.885956 2.545925 26.303876  
2002-01-18 05:30:42 51°13.686 2°55.782 3.880484 2.552726 26.382478  
2002-01-18 05:30:48 51°13.685 2°55.774 3.881206 2.563828 26.519209  
2002-01-18 05:30:52 51°13.685 2°55.769 3.873255 2.57353 26.644489  
2002-01-18 05:30:57 51°13.684 2°55.764 3.873255 2.57353 26.644489  
2002-01-18 05:31:02 51°13.684 2°55.758 3.875062 2.580532 26.735629  
2002-01-18 05:31:06 51°13.684 2°55.754 3.868143 2.588634 26.843019  
2002-01-18 05:31:11 51°13.683 2°55.749 3.864993 2.594936 26.925691  
2002-01-18 05:31:16 51°13.683 2°55.743 3.861688 2.596336 26.953255  
2002-01-18 05:31:23 51°13.682 2°55.737 3.855749 2.592935 26.918077  
2002-01-18 05:31:26 51°13.682 2°55.735 3.855749 2.592935 26.918077  
2002-01-18 05:31:31 51°13.682 2°55.733 3.847278 2.583733 26.817445  
2002-01-18 05:31:36 51°13.683 2°55.733 3.848414 2.579332 26.771579  
2002-01-18 05:31:41 51°13.684 2°55.734 3.848518 2.576732 26.741923  
2002-01-18 05:31:46 51°13.686 2°55.736 3.848724 2.56723 26.636466  
2002-01-18 05:31:51 51°13.688 2°55.739 3.845832 2.572231 26.69707  
2002-01-18 05:31:57 51°13.692 2°55.742 3.845832 2.572231 26.69707  
2002-01-18 05:32:01 51°13.696 2°55.743 3.843765 2.57013 26.677429  
2002-01-18 05:32:06 51°13.701 2°55.745 3.839788 2.56853 26.662769  
2002-01-18 05:32:11 51°13.706 2°55.745 3.84361 2.56793 26.66095  
2002-01-18 05:32:16 51°13.713 2°55.743 3.838754 2.56823 26.667245  
2002-01-18 05:32:21 51°13.72 2°55.741 3.837618 2.56893 26.678107  
2002-01-18 05:32:26 51°13.728 2°55.736 3.837618 2.56893 26.678107  
2002-01-18 05:32:32 51°13.737 2°55.729 3.837049 2.57013 26.69252  
2002-01-18 05:32:37 51°13.745 2°55.721 3.836636 2.56873 26.67798  
2002-01-18 05:32:41 51°13.752 2°55.715 3.838134 2.565029 26.640065  
2002-01-18 05:32:46 51°13.761 2°55.705 3.839633 2.558628 26.568474  
2002-01-18 05:32:50 51°13.769 2°55.698 17.325455 2.551927 26.493478  
2002-01-18 05:32:56 51°13.78 2°55.686 17.325455 2.551927 26.493478  
2002-01-18 05:33:02 51°13.793 2°55.673 8.423415 2.543326 26.395418  
2002-01-18 05:33:07 51°13.803 2°55.663 5.000005 2.536225 26.315913  
2002-01-18 05:33:11 51°13.812 2°55.655 5.630782 2.527824 26.220915  
2002-01-18 05:33:17 51°13.825 2°55.644 5.38686 2.520023 26.130674  
2002-01-18 05:33:22 51°13.837 2°55.635 5.060678 2.505622 25.967482  
2002-01-18 05:33:27 51°13.848 2°55.625 5.060678 2.505622 25.967482  
2002-01-18 05:33:33 51°13.863 2°55.614 4.925973 2.482622 25.701813  
2002-01-18 05:33:37 51°13.872 2°55.606 5.05926 2.448823 25.314745  
2002-01-18 05:33:41 51°13.882 2°55.599 5.189079 2.391632 24.663191  
2002-01-18 05:33:47 51°13.897 2°55.588 5.315906 2.336049 24.029321  
2002-01-18 05:33:51 51°13.907 2°55.581 5.075014 2.274976 23.336627  
2002-01-18 05:33:56 51°13.919 2°55.572 5.075014 2.274976 23.336627  
2002-01-18 05:34:01 51°13.932 2°55.562 5.298143 2.222407 22.744753  
2002-01-18 05:34:06 51°13.944 2°55.553 5.081244 2.193328 22.417646  
2002-01-18 05:34:12 51°13.959 2°55.542 5.105499 2.191729 22.391944  
2002-01-18 05:34:16 51°13.969 2°55.535 5.300111 2.211115 22.601947  
2002-01-18 05:34:21 51°13.982 2°55.526 5.434371 2.241895 22.94698  
2002-01-18 05:34:26 51°13.994 2°55.518 5.434371 2.241895 22.94698  
2002-01-18 05:34:32 51°14.007 2°55.508 5.108638 2.274376 23.314205  
2002-01-18 05:34:37 51°14.018 2°55.5 5.180938 2.313857 23.763426  
2002-01-18 05:34:42 51°14.028 2°55.492 4.842957 2.347744 24.151395  
2002-01-18 05:34:47 51°14.038 2°55.485 4.883412 2.377436 24.486945  
2002-01-18 05:34:50 51°14.043 2°55.481 5.417295 2.40013 24.747946  
2002-01-18 05:34:56 51°14.055 2°55.473 5.417295 2.40013 24.747946  
2002-01-18 05:35:01 51°14.064 2°55.466 5.130453 2.422626 25.009122  
2002-01-18 05:35:07 51°14.074 2°55.459 4.919779 2.435025 25.154262  
2002-01-18 05:35:11 51°14.08 2°55.453 5.205964 2.446424 25.288896  
2002-01-18 05:35:17 51°14.09 2°55.446 5.165918 2.456523 25.408233  
2002-01-18 05:35:22 51°14.099 2°55.439 4.958966 2.464722 25.504042  
2002-01-18 05:35:26 51°14.106 2°55.434 4.958966 2.464722 25.504042  
2002-01-18 05:35:32 51°14.116 2°55.425 5.162428 2.474622 25.617845  
2002-01-18 05:35:36 51°14.123 2°55.419 4.705185 2.481222 25.694215  
2002-01-18 05:35:41 51°14.132 2°55.412 4.915209 2.483622 25.724264  
2002-01-18 05:35:46 51°14.142 2°55.405 5.170673 2.489222 25.791403  
2002-01-18 05:35:50 51°14.149 2°55.398 5.331546 2.491122 25.813707  
2002-01-18 05:35:56 51°14.16 2°55.389 5.331546 2.491122 25.813707  
2002-01-18 05:36:01 51°14.169 2°55.381 4.832382 2.493522 25.842397  
2002-01-18 05:36:06 51°14.178 2°55.373 4.666553 2.498922 25.905929  
2002-01-18 05:36:11 51°14.187 2°55.364 4.791945 2.502922 25.951452  
2002-01-18 05:36:16 51°14.196 2°55.355 4.580538 2.506623 25.99357  
2002-01-18 05:36:21 51°14.205 2°55.345 4.753468 2.510423 26.03543  
2002-01-18 05:36:27 51°14.215 2°55.333 4.753468 2.510423 26.03543  
2002-01-18 05:36:32 51°14.224 2°55.322 4.919982 2.516723 26.107878  
2002-01-18 05:36:36 51°14.23 2°55.313 4.963432 2.520524 26.151871  
2002-01-18 05:36:41 51°14.238 2°55.301 4.506724 2.527224 26.228217  
2002-01-18 05:36:47 51°14.248 2°55.286 4.836246 2.528524 26.243033  
2002-01-18 05:36:52 51°14.255 2°55.273 4.835687 2.533325 26.298459  
2002-01-18 05:36:56 51°14.261 2°55.262 4.835687 2.533325 26.298459  
2002-01-18 05:37:01 51°14.268 2°55.248 5.048265 2.530925 26.271807  
2002-01-18 05:37:07 51°14.276 2°55.232 5.173454 2.527924 26.236195  
2002-01-18 05:37:13 51°14.285 2°55.214 4.971448 2.522224 26.170534  
2002-01-18 05:37:16 51°14.289 2°55.206 5.33649 2.514323 26.079841  
2002-01-18 05:37:21 51°14.296 2°55.191 4.880414 2.504223 25.964849  
2002-01-18 05:37:27 51°14.304 2°55.173 4.880414 2.504223 25.964849  
2002-01-18 05:37:31 51°14.309 2°55.161 5.388322 2.491622 25.820785  
2002-01-18 05:37:37 51°14.318 2°55.144 4.804359 2.481022 25.699561  
2002-01-18 05:37:41 51°14.324 2°55.133 5.007967 2.469522 25.567499  
2002-01-18 05:37:46 51°14.331 2°55.118 5.05551 2.460623 25.466423  
2002-01-18 05:37:51 51°14.338 2°55.104 5.095018 2.452423 25.371972  
2002-01-18 05:37:56 51°14.346 2°55.089 5.095018 2.452423 25.371972  
2002-01-18 05:38:01 51°14.353 2°55.074 5.088587 2.448524 25.327718  
2002-01-18 05:38:06 51°14.361 2°55.059 4.92445 2.447824 25.319776  
2002-01-18 05:38:11 51°14.368 2°55.043 4.917138 2.451023 25.354035  
2002-01-18 05:38:16 51°14.377 2°55.027 5.087169 2.455223 25.401012  
2002-01-18 05:38:21 51°14.385 2°55.01 5.000665 2.459923 25.454358  
2002-01-18 05:38:26 51°14.393 2°54.993 5.000665 2.459923 25.454358  
2002-01-18 05:38:31 51°14.403 2°54.977 5.046744 2.467722 25.542921  
2002-01-18 05:38:36 51°14.412 2°54.96 4.791691 2.478722 25.669958  
2002-01-18 05:38:41 51°14.422 2°54.942 5.129947 2.491822 25.820276  
2002-01-18 05:38:46 51°14.433 2°54.926 4.837416 2.509023 26.018789  
2002-01-18 05:38:51 51°14.444 2°54.909 5.12605 2.524124 26.192183  
2002-01-18 05:38:56 51°14.456 2°54.892 5.12605 2.524124 26.192183  
2002-01-18 05:39:01 51°14.467 2°54.874 5.212939 2.539026 26.362744  
2002-01-18 05:39:05 51°14.477 2°54.861 5.207834 2.552227 26.513333  
2002-01-18 05:39:11 51°14.491 2°54.84 4.885393 2.56423 26.651043  
2002-01-18 05:39:16 51°14.504 2°54.823 4.96744 2.582333 26.857844  
2002-01-18 05:39:22 51°14.52 2°54.803 5.262651 2.596037 27.015234  
2002-01-18 05:39:26 51°14.53 2°54.79 5.262651 2.596037 27.015234  
2002-01-18 05:39:32 51°14.546 2°54.771 4.810158 2.605739 27.126228  
2002-01-18 05:39:36 51°14.557 2°54.758 5.145785 2.625745 27.355998  
2002-01-18 05:39:41 51°14.57 2°54.742 5.39951 2.63905 27.505477  
2002-01-18 05:39:46 51°14.583 2°54.726 4.905458 2.661258 27.761644  
2002-01-18 05:39:52 51°14.599 2°54.706 4.790164 2.674764 27.914407  
2002-01-18 05:39:56 51°14.61 2°54.693 4.790164 2.674764 27.914407  
2002-01-18 05:40:01 51°14.623 2°54.677 5.002693 2.696674 28.163821  
2002-01-18 05:40:07 51°14.64 2°54.659 5.1219 2.712682 28.344818  
2002-01-18 05:40:11 51°14.651 2°54.647 4.838433 2.730091 28.542821  
2002-01-18 05:40:16 51°14.665 2°54.632 4.951049 2.743298 28.69257  
2002-01-18 05:40:21 51°14.679 2°54.616 4.827653 2.757206 28.848915  
2002-01-18 05:40:26 51°14.692 2°54.601 4.827653 2.757206 28.848915  
2002-01-18 05:40:31 51°14.706 2°54.585 4.659976 2.766212 28.94881  
2002-01-18 05:40:36 51°14.72 2°54.57 4.777799 2.777519 29.075266  
2002-01-18 05:40:41 51°14.734 2°54.555 4.904341 2.786925 29.181403  
2002-01-18 05:40:45 51°14.745 2°54.543 4.903934 2.797632 29.30259  
2002-01-18 05:40:49 51°14.756 2°54.53 5.27376 2.805738 29.396953  
2002-01-18 05:40:56 51°14.775 2°54.509 5.27376 2.805738 29.396953  
2002-01-18 05:41:01 51°14.789 2°54.494 4.854954 2.809841 29.445125  
2002-01-18 05:41:06 51°14.803 2°54.48 4.933588 2.812843 29.480595  
2002-01-18 05:41:12 51°14.82 2°54.462 4.805376 2.820749 29.575122  
2002-01-18 05:41:16 51°14.831 2°54.45 4.673027 2.824752 29.622187  
2002-01-18 05:41:21 51°14.845 2°54.436 4.839704 2.827754 29.657694  
2002-01-18 05:41:26 51°14.858 2°54.421 4.839704 2.827754 29.657694  
2002-01-18 05:41:30 51°14.869 2°54.409 5.09517 2.829455 29.680565  
2002-01-18 05:41:36 51°14.886 2°54.391 4.819618 2.831257 29.702998  
2002-01-18 05:41:41 51°14.9 2°54.377 4.922013 2.831457 29.709317  
2002-01-18 05:41:47 51°14.916 2°54.359 5.044869 2.832658 29.727217  
2002-01-18 05:41:52 51°14.93 2°54.344 4.866644 2.832158 29.723031  
2002-01-18 05:41:56 51°14.941 2°54.333 4.866644 2.832158 29.723031  
2002-01-18 05:42:01 51°14.955 2°54.318 4.843212 2.832458 29.72891  
2002-01-18 05:42:06 51°14.969 2°54.304 4.977638 2.837061 29.782986  
2002-01-18 05:42:10 51°14.98 2°54.293 5.071722 2.843266 29.849175  
2002-01-18 05:42:16 51°14.998 2°54.277 4.914752 2.847669 29.891285  
2002-01-18 05:42:22 51°15.015 2°54.261 4.8395 2.859579 30.016224  
2002-01-18 05:42:26 51°15.026 2°54.249 4.8395 2.859579 30.016224  
2002-01-18 05:42:31 51°15.041 2°54.236 5.138904 2.865383 30.071275  
2002-01-18 05:42:36 51°15.056 2°54.222 4.76823 2.875091 30.170668  
2002-01-18 05:42:41 51°15.071 2°54.208 5.30758 2.880896 30.226478  
2002-01-18 05:42:45 51°15.083 2°54.197 5.09912 2.888803 30.307407  
2002-01-18 05:42:51 51°15.1 2°54.18 4.890017 2.895709 30.376732  
2002-01-18 05:42:55 51°15.112 2°54.169 4.890017 2.895709 30.376732  
2002-01-18 05:43:01 51°15.13 2°54.151 5.094461 2.900913 30.427979  
2002-01-18 05:43:06 51°15.144 2°54.137 4.920439 2.901914 30.430564  
2002-01-18 05:43:11 51°15.159 2°54.122 4.869134 2.90862 30.503255  
2002-01-18 05:43:16 51°15.174 2°54.107 5.285018 2.911723 30.535885  
2002-01-18 05:43:22 51°15.192 2°54.09 4.97987 2.912524 30.54269  
2002-01-18 05:43:26 51°15.204 2°54.078 4.97987 2.912524 30.54269  
2002-01-18 05:43:31 51°15.219 2°54.063 5.088587 2.909221 30.504467  
2002-01-18 05:43:37 51°15.237 2°54.045 4.918763 2.909221 30.506106  
2002-01-18 05:43:41 51°15.249 2°54.032 4.830857 2.907219 30.484581  
2002-01-18 05:43:46 51°15.265 2°54.017 5.116282 2.903315 30.443506  
2002-01-18 05:43:53 51°15.287 2°53.995 5.279869 2.898811 30.400384  
2002-01-18 05:43:56 51°15.296 2°53.986 5.279869 2.898811 30.400384  
2002-01-18 05:44:01 51°15.312 2°53.97 4.945365 2.894408 30.355141  
2002-01-18 05:44:06 51°15.328 2°53.954 5.059158 2.887101 30.276311  
2002-01-18 05:44:12 51°15.347 2°53.934 4.803341 2.881797 30.222263  
2002-01-18 05:44:17 51°15.363 2°53.919 4.805071 2.878094 30.186733  
2002-01-18 05:44:21 51°15.375 2°53.905 5.135311 2.875391 30.161151  
2002-01-18 05:44:26 51°15.391 2°53.889 5.135311 2.875391 30.161151  
2002-01-18 05:44:31 51°15.407 2°53.872 4.885749 2.871588 30.121203  
2002-01-18 05:44:36 51°15.423 2°53.856 4.842042 2.867285 30.074655  
2002-01-18 05:44:41 51°15.439 2°53.839 5.175932 2.864382 30.045124  
2002-01-18 05:44:46 51°15.455 2°53.824 5.096487 2.859378 29.993701  
2002-01-18 05:44:51 51°15.471 2°53.806 4.771742 2.858278 29.985003  
2002-01-18 05:44:56 51°15.487 2°53.791 4.771742 2.858278 29.985003  
2002-01-18 05:45:01 51°15.503 2°53.773 4.810412 2.854174 29.942374  
2002-01-18 05:45:06 51°15.519 2°53.758 4.967643 2.852973 29.9309  
2002-01-18 05:45:11 51°15.535 2°53.739 4.68893 2.851973 29.920128  
2002-01-18 05:45:17 51°15.555 2°53.721 4.685821 2.850872 29.908198  
2002-01-18 05:45:21 51°15.567 2°53.706 5.050697 2.850872 29.904976  
2002-01-18 05:45:26 51°15.583 2°53.691 5.050697 2.850872 29.904976  
2002-01-18 05:45:31 51°15.599 2°53.673 4.737276 2.850171 29.895262  
2002-01-18 05:45:37 51°15.619 2°53.654 4.78589 2.849871 29.892595  
2002-01-18 05:45:41 51°15.631 2°53.639 5.425556 2.852173 29.920026  
2002-01-18 05:45:47 51°15.651 2°53.621 4.92775 2.852773 29.926166  
2002-01-18 05:45:53 51°15.67 2°53.6 5.511278 2.853274 29.92873  
2002-01-18 05:45:57 51°15.684 2°53.588 5.511278 2.853274 29.92873  
2002-01-18 05:46:01 51°15.696 2°53.574 4.96952 2.853073 29.919163  
2002-01-18 05:46:07 51°15.716 2°53.556 5.218902 2.84947 29.867853  
2002-01-18 05:46:11 51°15.729 2°53.541 4.945111 2.851272 29.875809  
2002-01-18 05:46:17 51°15.749 2°53.523 5.103828 2.847168 29.791537  
2002-01-18 05:46:22 51°15.765 2°53.505 5.133793 2.84997 29.80145  
2002-01-18 05:46:26 51°15.778 2°53.492 5.133793 2.84997 29.80145  
2002-01-18 05:46:32 51°15.797 2°53.472 5.088942 2.85057 29.791579  
2002-01-18 05:46:36 51°15.81 2°53.46 5.000462 2.847368 29.745896  
2002-01-18 05:46:41 51°15.827 2°53.444 5.769601 2.85077 29.790688  
2002-01-18 05:46:46 51°15.844 2°53.429 4.943893 2.84987 29.7891  
2002-01-18 05:46:51 51°15.86 2°53.413 4.999549 2.844966 29.736575  
2002-01-18 05:46:56 51°15.877 2°53.398 4.999549 2.844966 29.736575  
2002-01-18 05:47:01 51°15.894 2°53.383 4.786552 2.85037 29.778885  
2002-01-18 05:47:06 51°15.911 2°53.368 4.815447 2.848969 29.754765  
2002-01-18 05:47:10 51°15.924 2°53.356 5.018056 2.85077 29.769924  
2002-01-18 05:47:16 51°15.944 2°53.337 5.294105 2.851471 29.756454  
2002-01-18 05:47:21 51°15.961 2°53.322 5.35994 2.854773 29.786482  
2002-01-18 05:47:26 51°15.978 2°53.307 5.35994 2.854773 29.786482  
2002-01-18 05:47:31 51°15.995 2°53.293 4.849871 2.854173 29.777181  
2002-01-18 05:47:36 51°16.011 2°53.277 5.067365 2.856074 29.803048  
2002-01-18 05:47:41 51°16.029 2°53.262 5.257297 2.861178 29.874591  
2002-01-18 05:47:46 51°16.045 2°53.247 5.269468 2.861179 29.884199  
2002-01-18 05:47:51 51°16.062 2°53.232 5.375822 2.86278 29.893831  
2002-01-18 05:47:56 51°16.079 2°53.217 5.375822 2.86278 29.893831  
2002-01-18 05:48:01 51°16.096 2°53.202 5.465185 2.862179 29.845336  
2002-01-18 05:48:07 51°16.116 2°53.184 4.913431 2.864881 29.860435  
2002-01-18 05:48:12 51°16.133 2°53.168 4.996811 2.865882 29.875135  
2002-01-18 05:48:16 51°16.146 2°53.155 5.39961 2.868584 29.920607  
2002-01-18 05:48:21 51°16.163 2°53.141 5.047099 2.869985 29.923917  
2002-01-18 05:48:27 51°16.183 2°53.123 5.047099 2.869985 29.923917  
2002-01-18 05:48:31 51°16.197 2°53.112 4.799475 2.869384 29.884245  
2002-01-18 05:48:36 51°16.214 2°53.096 4.847787 2.873287 29.914703  
2002-01-18 05:48:41 51°16.232 2°53.083 5.119673 2.873287 29.901929  
2002-01-18 05:48:47 51°16.252 2°53.065 5.073748 2.877091 29.955981  
2002-01-18 05:48:51 51°16.266 2°53.055 4.898347 2.879493 30.014821  
2002-01-18 05:48:57 51°16.287 2°53.038 4.898347 2.879493 30.014821  
2002-01-18 05:49:01 51°16.301 2°53.029 5.289259 2.881995 30.062877  
2002-01-18 05:49:07 51°16.322 2°53.011 5.041373 2.882796 30.068069  
2002-01-18 05:49:11 51°16.336 2°53.002 5.210765 2.880193 30.015657  
2002-01-18 05:49:17 51°16.357 2°52.985 5.231939 2.881394 30.015029  
2002-01-18 05:49:21 51°16.372 2°52.976 5.044312 2.881294 29.997857  
2002-01-18 05:49:27 51°16.392 2°52.959 5.044312 2.881294 29.997857  
2002-01-18 05:49:31 51°16.407 2°52.95 5.183618 2.884097 30.041269  
2002-01-18 05:49:36 51°16.425 2°52.937 5.496488 2.8875 30.093231  
2002-01-18 05:49:41 51°16.443 2°52.927 4.760188 2.886198 30.066224  
2002-01-18 05:49:46 51°16.461 2°52.914 5.338961 2.8876 30.078312  
2002-01-18 05:49:51 51°16.479 2°52.904 4.907286 2.888901 30.097281  
2002-01-18 05:49:56 51°16.497 2°52.891 4.907286 2.888901 30.097281  
2002-01-18 05:50:02 51°16.519 2°52.88 5.010603 2.890903 30.132359  
2002-01-18 05:50:07 51°16.537 2°52.867 5.098411 2.891904 30.145479  
2002-01-18 05:50:13 51°16.559 2°52.855 5.025001 2.891703 30.131908  
2002-01-18 05:50:17 51°16.573 2°52.844 5.436133 2.895006 30.180359  
2002-01-18 05:50:23 51°16.596 2°52.832 5.509417 2.895407 30.191416  
2002-01-18 05:50:27 51°16.609 2°52.822 5.509417 2.895407 30.191416  
2002-01-18 05:50:32 51°16.628 2°52.812 5.050089 2.897609 30.229675  
2002-01-18 05:50:36 51°16.642 2°52.801 5.124684 2.898309 30.239356  
2002-01-18 05:50:41 51°16.66 2°52.791 4.994833 2.89861 30.233114  
2002-01-18 05:50:45 51°16.674 2°52.781 5.085194 2.89921 30.23033  
2002-01-18 05:50:51 51°16.696 2°52.767 4.977282 2.900611 30.238373  
2002-01-18 05:50:57 51°16.717 2°52.753 4.977282 2.900611 30.238373  
2002-01-18 05:51:02 51°16.735 2°52.742 5.096841 2.902212 30.250331  
2002-01-18 05:51:06 51°16.749 2°52.732 5.213899 2.903914 30.274752  
2002-01-18 05:51:11 51°16.767 2°52.722 4.886308 2.904615 30.276343  
2002-01-18 05:51:17 51°16.789 2°52.707 4.781361 2.905015 30.272056  
2002-01-18 05:51:21 51°16.803 2°52.698 4.494864 2.907717 30.307178  
2002-01-18 05:51:27 51°16.824 2°52.683 4.494864 2.907717 30.307178  
2002-01-18 05:51:31 51°16.838 2°52.674 4.637231 2.909819 30.339455  
2002-01-18 05:51:36 51°16.856 2°52.662 4.905763 2.911621 30.360185  
2002-01-18 05:51:41 51°16.873 2°52.649 5.005026 2.913022 30.375499  
2002-01-18 05:51:47 51°16.895 2°52.634 4.887629 2.915925 30.403221  
2002-01-18 05:51:53 51°16.916 2°52.62 4.978754 2.919328 30.44401  
2002-01-18 05:51:57 51°16.93 2°52.61 4.978754 2.919328 30.44401  
2002-01-18 05:52:01 51°16.944 2°52.6 4.87823 2.923432 30.506725  
2002-01-18 05:52:07 51°16.966 2°52.586 4.578087 2.927236 30.560335  
2002-01-18 05:52:11 51°16.98 2°52.575 4.8245 2.929638 30.581481  
2002-01-18 05:52:17 51°17.002 2°52.561 4.737072 2.93164 30.598826  
2002-01-18 05:52:21 51°17.016 2°52.551 4.813769 2.93264 30.598097  
2002-01-18 05:52:27 51°17.037 2°52.538 4.813769 2.93264 30.598097  
2002-01-18 05:52:31 51°17.051 2°52.527 4.927902 2.935343 30.607976  
2002-01-18 05:52:36 51°17.069 2°52.517 4.695096 2.938045 30.626012  
2002-01-18 05:52:41 51°17.087 2°52.503 5.061033 2.941448 30.64883  
2002-01-18 05:52:47 51°17.108 2°52.489 5.387566 2.943951 30.665356  
2002-01-18 05:52:51 51°17.122 2°52.478 5.059665 2.948355 30.701287  
2002-01-18 05:52:57 51°17.144 2°52.465 5.059665 2.948355 30.701287  
2002-01-18 05:53:01 51°17.157 2°52.453 5.361504 2.952859 30.748985  
2002-01-18 05:53:05 51°17.172 2°52.445 5.072076 2.95426 30.751178  
2002-01-18 05:53:11 51°17.193 2°52.429 5.489192 2.957263 30.779961  
2002-01-18 05:53:16 51°17.212 2°52.419 5.293196 2.959766 30.807904  
2002-01-18 05:53:21 51°17.229 2°52.406 5.05394 2.960567 30.81055  
2002-01-18 05:53:27 51°17.251 2°52.394 5.05394 2.960567 30.81055  
2002-01-18 05:53:31 51°17.265 2°52.384 5.169813 2.961267 30.807948  
2002-01-18 05:53:36 51°17.283 2°52.374 5.527071 2.962268 30.813712  
2002-01-18 05:53:41 51°17.301 2°52.361 4.984435 2.963569 30.818828  
2002-01-18 05:53:47 51°17.323 2°52.35 5.179978 2.96397 30.802141  
2002-01-18 05:53:52 51°17.341 2°52.338 5.151907 2.963969 30.785788  
2002-01-18 05:53:57 51°17.359 2°52.329 5.151907 2.963969 30.785788  
2002-01-18 05:54:01 51°17.373 2°52.319 5.129896 2.96437 30.765882  
2002-01-18 05:54:07 51°17.396 2°52.309 5.173353 2.965471 30.772789  
2002-01-18 05:54:10 51°17.406 2°52.301 5.216881 2.958263 30.694282  
2002-01-18 05:54:17 51°17.432 2°52.289 5.419008 2.967773 30.808161  
2002-01-18 05:54:22 51°17.449 2°52.276 5.635702 2.967773 30.8147  
2002-01-18 05:54:27 51°17.468 2°52.268 5.635702 2.967773 30.8147  
2002-01-18 05:54:31 51°17.482 2°52.257 4.99397 2.967072 30.809117  
2002-01-18 05:54:37 51°17.504 2°52.247 5.183315 2.966872 30.823178  
2002-01-18 05:54:42 51°17.522 2°52.235 5.437493 2.966372 30.832989  
2002-01-18 05:54:46 51°17.537 2°52.229 5.476812 2.964971 30.82591  
2002-01-18 05:54:52 51°17.558 2°52.215 5.559197 2.962568 30.800784  
2002-01-18 05:54:56 51°17.573 2°52.208 5.559197 2.962568 30.800784  
2002-01-18 05:55:01 51°17.591 2°52.196 5.167436 2.960366 30.759155  
2002-01-18 05:55:07 51°17.613 2°52.186 5.16167 2.957363 30.716545  
2002-01-18 05:55:11 51°17.627 2°52.175 5.177702 2.956362 30.697731  
2002-01-18 05:55:16 51°17.646 2°52.167 5.386709 2.955761 30.698993  
2002-01-18 05:55:21 51°17.664 2°52.154 5.825333 2.955061 30.699923  
2002-01-18 05:55:26 51°17.682 2°52.145 5.825333 2.955061 30.699923  
2002-01-18 05:55:31 51°17.7 2°52.133 5.22916 2.95406 30.699041  
2002-01-18 05:55:37 51°17.723 2°52.123 5.167082 2.952258 30.679182  
2002-01-18 05:55:43 51°17.744 2°52.109 5.140169 2.950456 30.656066  
2002-01-18 05:55:47 51°17.759 2°52.102 5.042994 2.949355 30.640179  
2002-01-18 05:55:52 51°17.777 2°52.09 5.062451 2.948154 30.619895  
2002-01-18 05:55:57 51°17.796 2°52.083 5.062451 2.948154 30.619895  
2002-01-18 05:56:01 51°17.811 2°52.072 4.950694 2.946953 30.605309  
2002-01-18 05:56:05 51°17.826 2°52.067 5.218397 2.945852 30.599185  
2002-01-18 05:56:11 51°17.848 2°52.053 5.071722 2.946152 30.611573  
2002-01-18 05:56:17 51°17.87 2°52.043 4.982406 2.946252 30.624928  
2002-01-18 05:56:22 51°17.888 2°52.031 5.606427 2.945852 30.626846  
2002-01-18 05:56:27 51°17.907 2°52.022 5.606427 2.945852 30.626846  
2002-01-18 05:56:31 51°17.922 2°52.013 5.46735 2.946152 30.638439  
2002-01-18 05:56:36 51°17.94 2°52.004 5.15565 2.946252 30.645294  
2002-01-18 05:56:43 51°17.966 2°51.989 4.934908 2.947253 30.661683  
2002-01-18 05:56:47 51°17.981 2°51.983 5.417446 2.947954 30.671363  
2002-01-18 05:56:51 51°17.996 2°51.974 5.355856 2.949055 30.684828  
2002-01-18 05:56:57 51°18.018 2°51.964 5.355856 2.949055 30.684828  
2002-01-18 05:57:01 51°18.033 2°51.954 5.259974 2.950757 30.706012  
2002-01-18 05:57:07 51°18.056 2°51.945 5.640873 2.951558 30.71031  
2002-01-18 05:57:13 51°18.077 2°51.931 5.463323 2.95356 30.734127  
2002-01-18 05:57:18 51°18.096 2°51.923 5.133641 2.955361 30.751557  
2002-01-18 05:57:23 51°18.114 2°51.911 5.029259 2.957764 30.775068  
2002-01-18 05:57:28 51°18.134 2°51.904 5.029259 2.957764 30.775068  
2002-01-18 05:57:33 51°18.151 2°51.891 5.478121 2.959866 30.796763  
2002-01-18 05:57:37 51°18.166 2°51.885 5.028499 2.961167 30.810076  
2002-01-18 05:57:42 51°18.184 2°51.873 5.069442 2.962568 30.81962  
2002-01-18 05:57:48 51°18.207 2°51.863 5.331092 2.964671 30.844591  
2002-01-18 05:57:53 51°18.225 2°51.851 5.177297 2.966072 30.859872  
2002-01-18 05:57:57 51°18.24 2°51.845 5.177297 2.966072 30.859872  
2002-01-18 05:58:02 51°18.258 2°51.833 5.09674 2.967073 30.868911  
2002-01-18 05:58:05 51°18.269 2°51.827 5.136779 2.968574 30.882879  
2002-01-18 05:58:10 51°18.288 2°51.818 5.06539 2.971077 30.90999  
2002-01-18 05:58:15 51°18.306 2°51.807 5.466494 2.971778 30.914754  
2002-01-18 05:58:21 51°18.328 2°51.795 5.12104 2.973179 30.926745  
2002-01-18 05:58:27 51°18.35 2°51.783 5.12104 2.973179 30.926745  
2002-01-18 05:58:33 51°18.372 2°51.77 5.391043 2.97428 30.927888  
2002-01-18 05:58:36 51°18.383 2°51.764 5.346627 2.976282 30.945127  
2002-01-18 05:58:41 51°18.401 2°51.754 5.446507 2.978184 30.96368  
2002-01-18 05:58:47 51°18.423 2°51.742 4.982863 2.979686 30.97681  
2002-01-18 05:58:51 51°18.438 2°51.734 5.12772 2.981588 30.997005  
2002-01-18 05:58:57 51°18.46 2°51.722 5.12772 2.981588 30.997005  
2002-01-18 05:59:02 51°18.478 2°51.712 5.150996 2.982088 30.996991  
2002-01-18 05:59:07 51°18.497 2°51.701 5.106562 2.98409 31.019155  
2002-01-18 05:59:11 51°18.511 2°51.694 4.81326 2.985592 31.038045  
2002-01-18 05:59:16 51°18.529 2°51.683 5.285473 2.985692 31.037547  
2002-01-18 05:59:21 51°18.548 2°51.675 4.871776 2.986593 31.044596  
2002-01-18 05:59:27 51°18.57 2°51.661 4.871776 2.986593 31.044596  
2002-01-18 05:59:31 51°18.585 2°51.655 5.472937 2.986492 31.040974  
2002-01-18 05:59:36 51°18.603 2°51.643 5.226937 2.987293 31.050169  
2002-01-18 05:59:41 51°18.622 2°51.637 5.408025 2.987293 31.051818  
2002-01-18 05:59:47 51°18.644 2°51.624 5.678912 2.987594 31.056091  
2002-01-18 05:59:51 51°18.659 2°51.619 5.585028 2.987794 31.057565  
2002-01-18 05:59:57 51°18.681 2°51.607 5.585028 2.987794 31.057565  
2002-01-18 06:00:01 51°18.696 2°51.603 5.719786 2.986392 31.039001  
2002-01-18 06:00:07 51°18.718 2°51.59 5.270983 2.986292 31.037852  
2002-01-18 06:00:11 51°18.733 2°51.585 5.510574 2.985491 31.032776  
2002-01-18 06:00:18 51°18.758 2°51.572 4.902919 2.984891 31.026703  
2002-01-18 06:00:22 51°18.773 2°51.567 5.05014 2.983389 31.011109  
2002-01-18 06:00:25 51°18.784 2°51.561 5.05014 2.983389 31.011109  
2002-01-18 06:00:31 51°18.806 2°51.551 5.549999 2.980787 30.977938  
2002-01-18 06:00:36 51°18.824 2°51.541 5.184579 2.980086 30.968251  
2002-01-18 06:00:42 51°18.847 2°51.532 5.099272 2.978484 30.953975  
2002-01-18 06:00:45 51°18.857 2°51.525 5.146342 2.976682 30.934114  
2002-01-18 06:00:53 51°18.887 2°51.512 5.149731 2.97418 30.904571  
2002-01-18 06:00:57 51°18.901 2°51.503 5.149731 2.97418 30.904571  
2002-01-18 06:01:01 51°18.916 2°51.497 5.350057 2.970676 30.870922  
2002-01-18 06:01:07 51°18.938 2°51.485 4.967947 2.966672 30.836436  
2002-01-18 06:01:11 51°18.952 2°51.479 5.151805 2.961667 30.791259  
2002-01-18 06:01:17 51°18.974 2°51.467 5.151401 2.957663 30.753467  
2002-01-18 06:01:21 51°18.989 2°51.461 5.221378 2.953059 30.716119  
2002-01-18 06:01:26 51°19.007 2°51.451 5.221378 2.953059 30.716119  
2002-01-18 06:01:33 51°19.033 2°51.44 5.17482 2.949956 30.687012  
2002-01-18 06:01:37 51°19.047 2°51.431 4.891591 2.945051 30.63802  
2002-01-18 06:01:41 51°19.062 2°51.424 5.043146 2.941848 30.609378  
2002-01-18 06:01:46 51°19.081 2°51.415 5.084637 2.937744 30.573634  
2002-01-18 06:01:51 51°19.099 2°51.405 4.877366 2.933841 30.538546  
2002-01-18 06:01:57 51°19.122 2°51.394 4.877366 2.933841 30.538546  
2002-01-18 06:02:01 51°19.137 2°51.387 4.966019 2.930938 30.516574  
2002-01-18 06:02:07 51°19.159 2°51.377 5.067011 2.927635 30.482676  
2002-01-18 06:02:12 51°19.178 2°51.368 5.08803 2.925233 30.461563  
2002-01-18 06:02:17 51°19.196 2°51.358 5.110359 2.922831 30.438822  
2002-01-18 06:02:22 51°19.215 2°51.349 5.098563 2.920228 30.410533  
2002-01-18 06:02:26 51°19.23 2°51.342 5.098563 2.920228 30.410533  
2002-01-18 06:02:32 51°19.253 2°51.331 4.922521 2.918627 30.391317  
2002-01-18 06:02:37 51°19.271 2°51.322 4.870913 2.918026 30.381175  
2002-01-18 06:02:41 51°19.286 2°51.314 4.864357 2.917526 30.373805  
2002-01-18 06:02:47 51°19.309 2°51.305 5.361151 2.917226 30.371165  
2002-01-18 06:02:51 51°19.324 2°51.296 4.939477 2.916325 30.360006  
2002-01-18 06:02:57 51°19.347 2°51.287 4.939477 2.916325 30.360006  
2002-01-18 06:03:02 51°19.365 2°51.277 4.937751 2.916024 30.355747  
2002-01-18 06:03:06 51°19.381 2°51.272 5.112485 2.915124 30.348633  
2002-01-18 06:03:11 51°19.399 2°51.26 5.11532 2.914924 30.352806  
2002-01-18 06:03:16 51°19.419 2°51.254 5.376376 2.914523 30.353871  
2002-01-18 06:03:21 51°19.437 2°51.243 4.841178 2.913422 30.346072  
2002-01-18 06:03:26 51°19.456 2°51.236 4.841178 2.913422 30.346072  
2002-01-18 06:03:31 51°19.475 2°51.225 5.072076 2.913322 30.348969  
2002-01-18 06:03:36 51°19.494 2°51.218 5.151198 2.913022 30.347946  
2002-01-18 06:03:41 51°19.512 2°51.207 5.340777 2.913622 30.35404  
2002-01-18 06:03:46 51°19.531 2°51.201 5.47651 2.914123 30.358984  
2002-01-18 06:03:53 51°19.557 2°51.188 5.2936 2.915324 30.367933  
2002-01-18 06:03:56 51°19.569 2°51.185 5.2936 2.915324 30.367933  
2002-01-18 06:04:02 51°19.591 2°51.175 5.009944 2.916825 30.377901  
2002-01-18 06:04:07 51°19.611 2°51.17 5.310204 2.917726 30.380964  
2002-01-18 06:04:11 51°19.626 2°51.163 5.076838 2.920328 30.402767  
2002-01-18 06:04:17 51°19.649 2°51.157 5.007105 2.92253 30.419152  
2002-01-18 06:04:21 51°19.664 2°51.151 5.228604 2.925833 30.444123  
2002-01-18 06:04:27 51°19.687 2°51.144 5.228604 2.925833 30.444123  
2002-01-18 06:04:31 51°19.702 2°51.138 5.401525 2.928736 30.466104  
2002-01-18 06:04:37 51°19.725 2°51.13 5.243761 2.932539 30.495169  
2002-01-18 06:04:41 51°19.74 2°51.124 5.505493 2.934541 30.506786  
2002-01-18 06:04:47 51°19.762 2°51.116 5.257701 2.937844 30.53089  
2002-01-18 06:04:51 51°19.777 2°51.11 5.015775 2.941447 30.561672  
2002-01-18 06:04:57 51°19.8 2°51.101 5.015775 2.941447 30.561672  
2002-01-18 06:05:03 51°19.822 2°51.091 5.267398 2.943249 30.570966  
2002-01-18 06:05:07 51°19.837 2°51.086 5.479429 2.946752 30.600575  
2002-01-18 06:05:12 51°19.856 2°51.079 5.570958 2.948454 30.611144  
2002-01-18 06:05:17 51°19.875 2°51.071 5.363722 2.950156 30.623334  
2002-01-18 06:05:22 51°19.894 2°51.064 5.45416 2.952458 30.641589  
2002-01-18 06:05:27 51°19.913 2°51.056 5.45416 2.952458 30.641589  
2002-01-18 06:05:32 51°19.932 2°51.048 5.333312 2.953359 30.645408  
2002-01-18 06:05:37 51°19.95 2°51.04 5.586434 2.95516 30.661172  
2002-01-18 06:05:42 51°19.969 2°51.033 5.308236 2.956462 30.6712  
2002-01-18 06:05:47 51°19.988 2°51.024 5.506248 2.956862 30.670907  
2002-01-18 06:05:52 51°20.007 2°51.018 5.345921 2.957963 30.680265  
2002-01-18 06:05:57 51°20.025 2°51.01 5.345921 2.957963 30.680265  
2002-01-18 06:06:02 51°20.045 2°51.003 5.302029 2.958263 30.678011  
2002-01-18 06:06:07 51°20.063 2°50.994 5.685885 2.959564 30.689659  
2002-01-18 06:06:12 51°20.082 2°50.989 5.266438 2.959464 30.682821  
2002-01-18 06:06:17 51°20.101 2°50.98 5.385751 2.960365 30.689069  
2002-01-18 06:06:22 51°20.12 2°50.975 5.347334 2.960866 30.691546  
2002-01-18 06:06:27 51°20.139 2°50.966 5.347334 2.960866 30.691546  
2002-01-18 06:06:32 51°20.158 2°50.961 5.22441 2.960866 30.689921  
2002-01-18 06:06:37 51°20.177 2°50.952 5.467853 2.960866 30.687482  
2002-01-18 06:06:42 51°20.196 2°50.946 5.427521 2.961366 30.691584  
2002-01-18 06:06:46 51°20.211 2°50.939 5.383685 2.961566 30.691437  
2002-01-18 06:06:52 51°20.234 2°50.932 5.380005 2.962267 30.700269  
2002-01-18 06:06:57 51°20.252 2°50.923 5.380005 2.962267 30.700269  
2002-01-18 06:07:02 51°20.271 2°50.918 5.789185 2.962367 30.701414  
2002-01-18 06:07:07 51°20.29 2°50.908 5.633443 2.961766 30.693728  
2002-01-18 06:07:13 51°20.313 2°50.901 5.627669 2.961867 30.694874  
2002-01-18 06:07:17 51°20.327 2°50.893 5.510021 2.961867 30.696499  
2002-01-18 06:07:21 51°20.342 2°50.889 5.125291 2.961366 30.692397  
2002-01-18 06:07:26 51°20.361 2°50.88 5.125291 2.961366 30.692397  
2002-01-18 06:07:31 51°20.38 2°50.873 5.421376 2.961566 30.695501  
2002-01-18 06:07:37 51°20.402 2°50.864 5.600249 2.961066 30.692212  
2002-01-18 06:07:42 51°20.421 2°50.856 5.411602 2.960465 30.684525  
2002-01-18 06:07:46 51°20.436 2°50.85 5.328973 2.960065 30.679942  
2002-01-18 06:07:53 51°20.463 2°50.841 5.654475 2.959464 30.670632  
2002-01-18 06:07:57 51°20.478 2°50.835 5.654475 2.959464 30.670632  
2002-01-18 06:08:01 51°20.493 2°50.829 5.101955 2.959564 30.675027  
2002-01-18 06:08:06 51°20.512 2°50.823 5.538284 2.959264 30.672402  
2002-01-18 06:08:11 51°20.53 2°50.814 5.365436 2.958563 30.663571  
2002-01-18 06:08:17 51°20.553 2°50.807 5.668827 2.958663 30.667153  
2002-01-18 06:08:22 51°20.572 2°50.799 5.900917 2.958163 30.663049  
2002-01-18 06:08:26 51°20.587 2°50.795 5.900917 2.958163 30.663049  
2002-01-18 06:08:31 51°20.606 2°50.785 5.618129 2.958263 30.668257  
2002-01-18 06:08:36 51°20.625 2°50.78 5.654074 2.957763 30.663341  
2002-01-18 06:08:41 51°20.643 2°50.771 5.328671 2.957663 30.662195  
2002-01-18 06:08:47 51°20.666 2°50.764 5.120888 2.957562 30.661049  
2002-01-18 06:08:51 51°20.681 2°50.756 5.289259 2.957162 30.655653  
2002-01-18 06:08:57 51°20.703 2°50.75 5.289259 2.957162 30.655653  
2002-01-18 06:09:01 51°20.718 2°50.742 4.174583 2.957562 30.661049  
2002-01-18 06:09:05 51°20.733 2°50.738 5.374511 2.957262 30.658424  
2002-01-18 06:09:13 51°20.763 2°50.725 5.421376 2.957863 30.665299  
2002-01-18 06:09:17 51°20.778 2°50.721 5.292742 2.957763 30.663341  
2002-01-18 06:09:22 51°20.797 2°50.712 5.260328 2.958063 30.666778  
2002-01-18 06:09:27 51°20.816 2°50.707 5.260328 2.958063 30.666778  
2002-01-18 06:09:31 51°20.831 2°50.7 4.67369 2.958163 30.667924  
2002-01-18 06:09:37 51°20.853 2°50.693 5.128581 2.958163 30.664674  
2002-01-18 06:09:42 51°20.872 2°50.685 4.968353 2.959064 30.674174  
2002-01-18 06:09:47 51°20.89 2°50.675 5.006648 2.958864 30.669445  
2002-01-18 06:09:52 51°20.908 2°50.663 4.422536 2.958964 30.669778  
2002-01-18 06:09:57 51°20.925 2°50.65 4.422536 2.958964 30.669778  
2002-01-18 06:10:02 51°20.942 2°50.636 4.424788 2.959364 30.674361  
2002-01-18 06:10:07 51°20.957 2°50.619 4.419977 2.959564 30.675839  
2002-01-18 06:10:11 51°20.969 2°50.605 4.410507 2.959664 30.67861  
2002-01-18 06:10:17 51°20.987 2°50.581 4.397964 2.959865 30.680089  
2002-01-18 06:10:22 51°21.001 2°50.561 4.392024 2.960465 30.686963  
2002-01-18 06:10:27 51°21.014 2°50.54 4.392024 2.960465 30.686963  
2002-01-18 06:10:33 51°21.03 2°50.514 4.388696 2.960565 30.685671  
2002-01-18 06:10:38 51°21.042 2°50.491 4.383472 2.961066 30.689773  
2002-01-18 06:10:43 51°21.054 2°50.469 4.383933 2.962367 30.70548  
2002-01-18 06:10:47 51°21.064 2°50.45 4.382346 2.962567 30.710212  
2002-01-18 06:10:53 51°21.079 2°50.423 4.384548 2.962167 30.71295  
2002-01-18 06:10:57 51°21.088 2°50.404 4.384548 2.962167 30.71295  
2002-01-18 06:11:02 51°21.101 2°50.381 4.392588 2.961667 30.712103  
2002-01-18 06:11:06 51°21.109 2°50.361 4.391871 2.960666 30.705523  
2002-01-18 06:11:12 51°21.125 2°50.334 4.384958 2.960265 30.706634  
2002-01-18 06:11:17 51°21.136 2°50.31 4.382704 2.959865 30.702048  
2002-01-18 06:11:22 51°21.148 2°50.287 4.395711 2.959765 30.702529  
2002-01-18 06:11:27 51°21.16 2°50.263 4.395711 2.959765 30.702529  
2002-01-18 06:11:32 51°21.172 2°50.24 4.408664 2.960465 30.709741  
2002-01-18 06:11:37 51°21.183 2°50.216 4.453646 2.961066 30.716621  
2002-01-18 06:11:42 51°21.195 2°50.193 4.426426 2.961867 30.72498  
2002-01-18 06:11:47 51°21.206 2°50.168 4.43927 2.962067 30.728088  
2002-01-18 06:11:51 51°21.216 2°50.15 4.462854 2.962167 30.730864  
2002-01-18 06:11:57 51°21.228 2°50.12 4.462854 2.962167 30.730864  
2002-01-18 06:12:02 51°21.241 2°50.097 4.500488 2.962668 30.733339  
2002-01-18 06:12:07 51°21.252 2°50.073 4.535289 2.963669 30.740731  
2002-01-18 06:12:12 51°21.265 2°50.051 4.559041 2.966672 30.769422  
2002-01-18 06:12:17 51°21.276 2°50.027 4.575739 2.969775 30.796806  
2002-01-18 06:12:22 51°21.289 2°50.004 4.587327 2.972678 30.821889  
2002-01-18 06:12:27 51°21.301 2°49.981 4.587327 2.972678 30.821889  
2002-01-18 06:12:32 51°21.313 2°49.958 4.601925 2.977082 30.855169  
2002-01-18 06:12:37 51°21.325 2°49.935 4.611774 2.980986 30.885148  
2002-01-18 06:12:42 51°21.338 2°49.912 4.617897 2.987292 30.92869  
2002-01-18 06:12:47 51°21.349 2°49.888 4.624376 2.994299 30.986732  
2002-01-18 06:12:52 51°21.362 2°49.865 4.643351 2.998804 31.018576  
2002-01-18 06:12:57 51°21.374 2°49.841 4.643351 2.998804 31.018576  
2002-01-18 06:13:02 51°21.386 2°49.818 4.658599 3.003609 31.055461  
2002-01-18 06:13:07 51°21.399 2°49.795 4.66747 3.007513 31.083667  
2002-01-18 06:13:12 51°21.411 2°49.772 4.712624 3.009915 31.09635  
2002-01-18 06:13:17 51°21.424 2°49.749 4.672313 3.013419 31.126509  
2002-01-18 06:13:22 51°21.437 2°49.726 4.674607 3.015221 31.138055  
2002-01-18 06:13:26 51°21.447 2°49.708 4.674607 3.015221 31.138055  
2002-01-18 06:13:33 51°21.465 2°49.677 4.678838 3.013419 31.107664  
2002-01-18 06:13:37 51°21.475 2°49.658 4.683731 3.020326 31.174981  
2002-01-18 06:13:43 51°21.491 2°49.632 4.688471 3.022228 31.185191  
2002-01-18 06:13:47 51°21.502 2°49.615 4.69214 3.024831 31.205845  
2002-01-18 06:13:53 51°21.518 2°49.591 4.73422 3.026433 31.218362  
2002-01-18 06:13:57 51°21.53 2°49.574 4.73422 3.026433 31.218362  
2002-01-18 06:14:01 51°21.541 2°49.557 4.686585 3.028235 31.2348  
2002-01-18 06:14:07 51°21.559 2°49.535 4.687401 3.029737 31.246991  
2002-01-18 06:14:11 51°21.571 2°49.52 4.727345 3.030838 31.255437  
2002-01-18 06:14:17 51°21.589 2°49.498 4.686789 3.032239 31.267304  
2002-01-18 06:14:21 51°21.602 2°49.484 4.686229 3.033441 31.277709  
2002-01-18 06:14:27 51°21.621 2°49.465 4.686229 3.033441 31.277709  
2002-01-18 06:14:31 51°21.634 2°49.452 4.684802 3.034342 31.284689  
2002-01-18 06:14:36 51°21.651 2°49.437 4.685872 3.034742 31.289253  
2002-01-18 06:14:41 51°21.668 2°49.423 4.686331 3.034742 31.289253  
2002-01-18 06:14:47 51°21.688 2°49.405 4.722455 3.034642 31.28729  
2002-01-18 06:14:53 51°21.708 2°49.39 4.67369 3.034742 31.288431  
2002-01-18 06:14:56 51°21.719 2°49.381 4.67369 3.034742 31.288431  
2002-01-18 06:15:01 51°21.735 2°49.367 4.666247 3.034542 31.286971  
2002-01-18 06:15:07 51°21.756 2°49.352 4.667215 3.034242 31.285192  
2002-01-18 06:15:11 51°21.77 2°49.342 4.662831 3.034342 31.285511  
2002-01-18 06:15:17 51°21.791 2°49.327 4.67476 3.033941 31.280948  
2002-01-18 06:15:21 51°21.805 2°49.318 4.688573 3.034041 31.28291  
2002-01-18 06:15:25 51°21.82 2°49.311 4.688573 3.034041 31.28291  
2002-01-18 06:15:33 51°21.849 2°49.293 4.738651 3.033941 31.286701  
2002-01-18 06:15:37 51°21.863 2°49.285 4.717157 3.03244 31.272051  
2002-01-18 06:15:41 51°21.877 2°49.275 4.656814 3.031639 31.265387  
2002-01-18 06:15:47 51°21.899 2°49.264 4.651817 3.031038 31.262648  
2002-01-18 06:15:53 51°21.92 2°49.251 4.646411 3.031138 31.262967  
2002-01-18 06:15:57 51°21.935 2°49.244 4.646411 3.031138 31.262967  
2002-01-18 06:16:01 51°21.949 2°49.233 4.640954 3.032239 31.268947  
2002-01-18 06:16:05 51°21.963 2°49.227 4.675066 3.033441 31.276887  
2002-01-18 06:16:11 51°21.984 2°49.211 4.630243 3.033541 31.278849  
2002-01-18 06:16:17 51°22.006 2°49.2 4.631824 3.032139 31.269449  
2002-01-18 06:16:22 51°22.023 2°49.188 4.628916 3.030237 31.255983  
2002-01-18 06:16:27 51°22.042 2°49.179 4.628916 3.030237 31.255983  
2002-01-18 06:16:32 51°22.06 2°49.168 4.627896 3.029036 31.24968  
2002-01-18 06:16:37 51°22.078 2°49.161 4.670376 3.027734 31.240591  
2002-01-18 06:16:42 51°22.096 2°49.151 4.62458 3.026733 31.235746  
2002-01-18 06:16:47 51°22.115 2°49.144 4.629988 3.025532 31.224508  
2002-01-18 06:16:53 51°22.137 2°49.132 4.635242 3.024831 31.218158  
2002-01-18 06:16:57 51°22.152 2°49.127 4.635242 3.024831 31.218158  
2002-01-18 06:17:02 51°22.17 2°49.117 4.643453 3.024531 31.218839  
2002-01-18 06:17:07 51°22.189 2°49.109 4.660842 3.024431 31.217697  
2002-01-18 06:17:11 51°22.203 2°49.102 4.689643 3.024531 31.222125  
2002-01-18 06:17:17 51°22.225 2°49.092 4.707835 3.024131 31.218378  
2002-01-18 06:17:21 51°22.24 2°49.086 4.718533 3.024031 31.218057  
2002-01-18 06:17:27 51°22.263 2°49.075 4.718533 3.024031 31.218057  
2002-01-18 06:17:33 51°22.285 2°49.065 4.761359 3.024431 31.220161  
2002-01-18 06:17:37 51°22.3 2°49.059 4.708904 3.025132 31.224048  
2002-01-18 06:17:42 51°22.318 2°49.05 4.691835 3.027234 31.242277  
2002-01-18 06:17:47 51°22.336 2°49.042 4.672109 3.029837 31.259634  
2002-01-18 06:17:51 51°22.351 2°49.035 4.68154 3.033441 31.284284  
2002-01-18 06:17:57 51°22.373 2°49.024 4.68154 3.033441 31.284284  
2002-01-18 06:18:02 51°22.391 2°49.014 4.685464 3.036944 31.308597  
2002-01-18 06:18:07 51°22.41 2°49.005 4.689694 3.038947 31.32072  
2002-01-18 06:18:11 51°22.425 2°48.999 4.702077 3.040448 31.337006  
2002-01-18 06:18:17 51°22.446 2°48.986 4.709465 3.039447 31.329713  
2002-01-18 06:18:21 51°22.461 2°48.979 4.716139 3.038046 31.322791  
2002-01-18 06:18:26 51°22.479 2°48.968 4.716139 3.038046 31.322791  
2002-01-18 06:18:31 51°22.497 2°48.961 4.721895 3.037045 31.31714  
2002-01-18 06:18:37 51°22.519 2°48.95 4.725104 3.037145 31.318281  
2002-01-18 06:18:42 51°22.538 2°48.944 4.734475 3.037745 31.324305  
2002-01-18 06:18:46 51°22.553 2°48.938 4.743285 3.039147 31.334518  
2002-01-18 06:18:52 51°22.576 2°48.931 4.754639 3.040649 31.346693  
2002-01-18 06:18:55 51°22.588 2°48.927 4.754639 3.040649 31.346693  
2002-01-18 06:19:01 51°22.61 2°48.92 4.763191 3.04225 31.357537  
2002-01-18 06:19:06 51°22.629 2°48.913 4.782888 3.042851 31.359441  
2002-01-18 06:19:12 51°22.653 2°48.908 4.837365 3.044453 31.371103  
2002-01-18 06:19:16 51°22.668 2°48.902 4.805173 3.045754 31.380163  
2002-01-18 06:19:22 51°22.691 2°48.897 4.824449 3.047356 31.390995  
2002-01-18 06:19:27 51°22.71 2°48.89 4.824449 3.047356 31.390995  
2002-01-18 06:19:32 51°22.729 2°48.887 5.414575 3.049058 31.403787  
2002-01-18 06:19:37 51°22.749 2°48.88 5.302029 3.05046 31.410685  
2002-01-18 06:19:42 51°22.768 2°48.878 5.46745 3.053463 31.434987  
2002-01-18 06:19:47 51°22.788 2°48.872 5.179573 3.055565 31.445731  
2002-01-18 06:19:51 51°22.803 2°48.87 5.553618 3.058068 31.461848  
2002-01-18 06:19:56 51°22.823 2°48.866 5.553618 3.058068 31.461848  
2002-01-18 06:20:02 51°22.847 2°48.861 5.597135 3.061172 31.48561  
2002-01-18 06:20:06 51°22.862 2°48.857 5.224259 3.063775 31.502845  
2002-01-18 06:20:10 51°22.878 2°48.852 5.423793 3.066478 31.525332  
2002-01-18 06:20:16 51°22.901 2°48.847 5.38182 3.067779 31.536003  
2002-01-18 06:20:21 51°22.92 2°48.84 5.414373 3.069081 31.546672  
2002-01-18 06:20:26 51°22.94 2°48.836 5.414373 3.069081 31.546672  
2002-01-18 06:20:31 51°22.959 2°48.83 6.152974 3.070382 31.559816  
2002-01-18 06:20:37 51°22.983 2°48.825 5.569149 3.070082 31.550626  
2002-01-18 06:20:41 51°22.998 2°48.818 5.662153 3.070582 31.55549  
2002-01-18 06:20:47 51°23.021 2°48.814 6.032459 3.071083 31.565305  
2002-01-18 06:20:51 51°23.037 2°48.807 5.992835 3.070582 31.558791  
2002-01-18 06:20:57 51°23.06 2°48.803 5.992835 3.070582 31.558791  
2002-01-18 06:21:01 51°23.075 2°48.796 5.995681 3.070382 31.554865  
2002-01-18 06:21:06 51°23.095 2°48.793 5.423793 3.069882 31.554126  
2002-01-18 06:21:12 51°23.118 2°48.784 5.675099 3.069581 31.550712  
2002-01-18 06:21:18 51°23.141 2°48.779 5.514347 3.069882 31.554126  
2002-01-18 06:21:21 51°23.153 2°48.774 5.685885 3.070082 31.555577  
2002-01-18 06:21:26 51°23.172 2°48.771 5.685885 3.070082 31.555577  
2002-01-18 06:21:31 51°23.192 2°48.764 6.061487 3.070382 31.55899  
2002-01-18 06:21:36 51°23.211 2°48.761 5.988143 3.070582 31.557965  
2002-01-18 06:21:41 51°23.23 2°48.753 5.70715 3.071083 31.56448  
2002-01-18 06:21:46 51°23.25 2°48.75 5.960429 3.071584 31.566868  
2002-01-18 06:21:51 51°23.269 2°48.743 5.482147 3.072284 31.572356  
2002-01-18 06:21:57 51°23.292 2°48.738 5.482147 3.072284 31.572356  
2002-01-18 06:22:01 51°23.308 2°48.732 6.137288 3.073286 31.578781  
2002-01-18 06:22:06 51°23.327 2°48.726 6.183441 3.074187 31.583241  
2002-01-18 06:22:11 51°23.346 2°48.721 5.984298 3.075388 31.592764  
2002-01-18 06:22:16 51°23.366 2°48.714 5.947492 3.07699 31.604356  
2002-01-18 06:22:21 51°23.385 2°48.71 6.073155 3.078291 31.612534  
2002-01-18 06:22:26 51°23.404 2°48.702 6.073155 3.078291 31.612534  
2002-01-18 06:22:31 51°23.424 2°48.698 5.83199 3.079293 31.617299  
2002-01-18 06:22:36 51°23.443 2°48.692 5.79219 3.080394 31.624025  
2002-01-18 06:22:41 51°23.462 2°48.689 5.631636 3.081595 31.634363  
2002-01-18 06:22:46 51°23.482 2°48.686 5.797548 3.082596 31.639949  
2002-01-18 06:22:52 51°23.505 2°48.682 5.841048 3.083698 31.647495  
2002-01-18 06:22:56 51°23.521 2°48.682 5.841048 3.083698 31.647495  
2002-01-18 06:23:01 51°23.54 2°48.679 5.882617 3.084499 31.651632  
2002-01-18 06:23:06 51°23.56 2°48.678 5.924059 3.0853 31.656592  
2002-01-18 06:23:11 51°23.58 2°48.676 5.761184 3.086 31.662068  
2002-01-18 06:23:16 51°23.599 2°48.676 5.761735 3.086401 31.661658  
2002-01-18 06:23:21 51°23.619 2°48.673 5.556835 3.086701 31.662588  
2002-01-18 06:23:28 51°23.646 2°48.672 5.556835 3.086701 31.662588  
2002-01-18 06:23:30 51°23.654 2°48.671 5.762036 3.087302 31.666926  
2002-01-18 06:23:37 51°23.682 2°48.667 6.008608 3.087802 31.67178  
2002-01-18 06:23:41 51°23.697 2°48.666 5.803757 3.088203 31.673846  
2002-01-18 06:23:46 51°23.717 2°48.662 6.374517 3.088203 31.672194  
2002-01-18 06:23:50 51°23.733 2°48.663 5.96807 3.088303 31.671678  
2002-01-18 06:23:56 51°23.756 2°48.657 5.96807 3.088303 31.671678  
2002-01-18 06:24:01 51°23.775 2°48.657 5.96852 3.088303 31.67333  
2002-01-18 06:24:07 51°23.799 2°48.652 5.433363 3.088804 31.679009  
2002-01-18 06:24:12 51°23.818 2°48.651 5.763338 3.088503 31.675601  
2002-01-18 06:24:16 51°23.834 2°48.647 5.723044 3.088203 31.672194  
2002-01-18 06:24:21 51°23.853 2°48.646 5.724047 3.088603 31.676737  
2002-01-18 06:24:26 51°23.872 2°48.642 5.724047 3.088603 31.676737  
2002-01-18 06:24:30 51°23.888 2°48.64 5.845801 3.088203 31.672194  
2002-01-18 06:24:35 51°23.908 2°48.637 5.848153 3.087903 31.667961  
2002-01-18 06:24:41 51°23.931 2°48.633 5.684279 3.088003 31.669923  
2002-01-18 06:24:46 51°23.951 2°48.631 5.644336 3.087802 31.667651  
2002-01-18 06:24:50 51°23.966 2°48.627 6.055902 3.088003 31.671574  
2002-01-18 06:24:56 51°23.99 2°48.626 6.055902 3.088003 31.671574  
2002-01-18 06:25:01 51°24.009 2°48.621 6.097779 3.087802 31.666826  
2002-01-18 06:25:07 51°24.033 2°48.62 6.099723 3.088203 31.67302  
2002-01-18 06:25:12 51°24.053 2°48.615 5.895017 3.088403 31.67364  
2002-01-18 06:25:16 51°24.068 2°48.615 5.570053 3.088503 31.673124  
2002-01-18 06:25:21 51°24.088 2°48.611 5.654325 3.088503 31.672298  
2002-01-18 06:25:26 51°24.108 2°48.609 5.654325 3.088503 31.672298  
2002-01-18 06:25:31 51°24.127 2°48.605 5.69697 3.087902 31.665485  
2002-01-18 06:25:36 51°24.147 2°48.605 5.411905 3.088003 31.665795  
2002-01-18 06:25:42 51°24.17 2°48.599 5.745149 3.088503 31.669822  
2002-01-18 06:25:46 51°24.186 2°48.6 5.58352 3.088804 31.670752  
2002-01-18 06:25:51 51°24.205 2°48.594 5.71056 3.089304 31.674778  
2002-01-18 06:25:56 51°24.225 2°48.593 5.71056 3.089304 31.674778  
2002-01-18 06:26:01 51°24.244 2°48.588 5.837995 3.088603 31.66518  
2002-01-18 06:26:06 51°24.264 2°48.587 5.67851 3.089805 31.677978  
2002-01-18 06:26:11 51°24.283 2°48.583 5.560253 3.090606 31.683759  
2002-01-18 06:26:17 51°24.307 2°48.581 5.398804 3.091106 31.687784  
2002-01-18 06:26:21 51°24.323 2°48.578 5.689697 3.091707 31.691293  
2002-01-18 06:26:26 51°24.342 2°48.575 5.689697 3.091707 31.691293  
2002-01-18 06:26:31 51°24.362 2°48.573 5.5693 3.092107 31.694182  
2002-01-18 06:26:36 51°24.381 2°48.57 5.571159 3.092708 31.696864  
2002-01-18 06:26:41 51°24.401 2°48.569 5.574978 3.09441 31.713682  
2002-01-18 06:26:45 51°24.417 2°48.565 5.331294 3.09411 31.705322  
2002-01-18 06:26:51 51°24.441 2°48.564 5.541502 3.096513 31.729255  
2002-01-18 06:26:58 51°24.468 2°48.561 5.541502 3.096513 31.729255  
2002-01-18 06:27:02 51°24.484 2°48.559 5.296881 3.096312 31.722029  
2002-01-18 06:27:06 51°24.499 2°48.556 5.548289 3.097314 31.730898  
2002-01-18 06:27:11 51°24.519 2°48.557 5.549395 3.098415 31.7409  
2002-01-18 06:27:16 51°24.539 2°48.552 5.716276 3.098515 31.737904  
2002-01-18 06:27:21 51°24.559 2°48.552 5.763288 3.099616 31.747078  
2002-01-18 06:27:26 51°24.578 2°48.547 5.763288 3.099616 31.747078  
2002-01-18 06:27:32 51°24.602 2°48.546 5.842549 3.099717 31.745734  
2002-01-18 06:27:37 51°24.621 2°48.542 5.641074 3.101118 31.757483  
2002-01-18 06:27:41 51°24.637 2°48.542 5.641375 3.101719 31.76181  
2002-01-18 06:27:47 51°24.661 2°48.537 5.890717 3.10252 31.768404  
2002-01-18 06:27:52 51°24.681 2°48.537 5.817174 3.103121 31.775209  
2002-01-18 06:27:56 51°24.696 2°48.532 5.817174 3.103121 31.775209  
2002-01-18 06:28:01 51°24.716 2°48.532 5.977558 3.103521 31.774786  
2002-01-18 06:28:07 51°24.74 2°48.527 6.069366 3.104723 31.786742  
2002-01-18 06:28:12 51°24.759 2°48.527 5.698926 3.104723 31.785088  
2002-01-18 06:28:17 51°24.779 2°48.523 5.828436 3.105624 31.79364  
2002-01-18 06:28:22 51°24.799 2°48.523 5.997428 3.106124 31.79683  
2002-01-18 06:28:26 51°24.815 2°48.521 5.997428 3.106124 31.79683  
2002-01-18 06:28:33 51°24.842 2°48.519 5.713368 3.106925 31.80342  
2002-01-18 06:28:36 51°24.854 2°48.517 5.760683 3.107526 31.809396  
2002-01-18 06:28:42 51°24.877 2°48.515 6.173237 3.107826 31.807836  
2002-01-18 06:28:47 51°24.897 2°48.513 5.942197 3.109028 31.816478  
2002-01-18 06:28:52 51°24.917 2°48.51 5.939399 3.109629 31.819972  
2002-01-18 06:28:56 51°24.932 2°48.51 5.939399 3.109629 31.819972  
2002-01-18 06:29:02 51°24.956 2°48.506 5.878316 3.11103 31.832532  
2002-01-18 06:29:07 51°24.974 2°48.506 6.369803 3.111331 31.83097  
2002-01-18 06:29:11 51°24.988 2°48.503 6.011303 3.112532 31.841261  
2002-01-18 06:29:17 51°25.009 2°48.502 6.271919 3.113133 31.843097  
2002-01-18 06:29:23 51°25.029 2°48.499 6.022331 3.114535 31.854824  
2002-01-18 06:29:26 51°25.039 2°48.5 6.022331 3.114535 31.854824  
2002-01-18 06:29:31 51°25.055 2°48.497 5.984997 3.115736 31.864283  
2002-01-18 06:29:37 51°25.074 2°48.497 6.274354 3.116337 31.862807  
2002-01-18 06:29:41 51°25.087 2°48.495 5.830789 3.118339 31.878014  
2002-01-18 06:29:47 51°25.106 2°48.494 5.993684 3.119441 31.881371  
2002-01-18 06:29:52 51°25.121 2°48.492 5.790537 3.121443 31.896569  
2002-01-18 06:29:56 51°25.133 2°48.491 5.790537 3.121443 31.896569  
2002-01-18 06:30:01 51°25.148 2°48.489 5.996479 3.122444 31.899617  
2002-01-18 06:30:06 51°25.163 2°48.488 5.754219 3.124547 31.919249  
2002-01-18 06:30:11 51°25.178 2°48.486 5.67535 3.125648 31.92756  
2002-01-18 06:30:16 51°25.194 2°48.485 5.922809 3.12675 31.936698  
2002-01-18 06:30:22 51°25.212 2°48.483 5.886267 3.128452 31.953453  
2002-01-18 06:30:27 51°25.227 2°48.482 5.886267 3.128452 31.953453  
2002-01-18 06:30:31 51°25.239 2°48.481 5.68443 3.129553 31.963416  
2002-01-18 06:30:36 51°25.254 2°48.479 5.972814 3.130454 31.971116  
2002-01-18 06:30:41 51°25.269 2°48.479 6.140774 3.130555 31.969762  
2002-01-18 06:30:45 51°25.28 2°48.476 6.021233 3.131155 31.975723  
2002-01-18 06:30:51 51°25.298 2°48.476 6.023978 3.132157 31.984552  
2002-01-18 06:30:56 51°25.313 2°48.473 6.023978 3.132157 31.984552  
2002-01-18 06:31:02 51°25.331 2°48.472 6.027769 3.132958 31.991118  
2002-01-18 06:31:07 51°25.346 2°48.469 5.907665 3.133759 31.996025  
2002-01-18 06:31:13 51°25.364 2°48.468 6.071958 3.134159 31.997235  
2002-01-18 06:31:16 51°25.372 2°48.467 5.828186 3.135461 32.008626  
2002-01-18 06:31:21 51°25.387 2°48.467 5.914913 3.136362 32.017149  
2002-01-18 06:31:27 51°25.405 2°48.465 5.914913 3.136362 32.017149  
2002-01-18 06:31:31 51°25.417 2°48.465 6.038146 3.136863 32.020318  
2002-01-18 06:31:37 51°25.435 2°48.463 6.12354 3.137163 32.018736  
2002-01-18 06:31:42 51°25.45 2°48.462 6.247263 3.137764 32.023035  
2002-01-18 06:31:47 51°25.465 2°48.46 5.922659 3.138765 32.031857  
2002-01-18 06:31:52 51°25.479 2°48.459 6.005763 3.139866 32.041809  
2002-01-18 06:31:57 51°25.494 2°48.458 6.005763 3.139866 32.041809  
2002-01-18 06:32:01 51°25.506 2°48.458 6.292144 3.139566 32.035929  
2002-01-18 06:32:06 51°25.521 2°48.455 6.131311 3.140267 32.041357  
2002-01-18 06:32:11 51°25.536 2°48.454 6.257455 3.141468 32.054096  
2002-01-18 06:32:17 51°25.554 2°48.452 6.135245 3.142169 32.059523  
2002-01-18 06:32:21 51°25.565 2°48.451 5.522344 3.14247 32.061256  
2002-01-18 06:32:26 51°25.58 2°48.449 5.522344 3.14247 32.061256  
2002-01-18 06:32:31 51°25.595 2°48.448 5.769701 3.14277 32.062159  
2002-01-18 06:32:37 51°25.613 2°48.446 5.81377 3.143371 32.066453  
2002-01-18 06:32:41 51°25.625 2°48.445 5.936751 3.143771 32.070146  
2002-01-18 06:32:47 51°25.643 2°48.444 5.816273 3.144172 32.073009  
2002-01-18 06:32:51 51°25.654 2°48.441 5.816624 3.144672 32.076172  
2002-01-18 06:32:57 51°25.672 2°48.441 5.816624 3.144672 32.076172  
2002-01-18 06:33:01 51°25.684 2°48.439 5.736027 3.144873 32.077603  
2002-01-18 06:33:06 51°25.699 2°48.439 5.942346 3.144873 32.075114  
2002-01-18 06:33:11 51°25.714 2°48.437 5.739335 3.145574 32.081367  
2002-01-18 06:33:17 51°25.731 2°48.436 5.657536 3.145774 32.081968  
2002-01-18 06:33:22 51°25.745 2°48.436 5.702035 3.146174 32.085659  
2002-01-18 06:33:26 51°25.755 2°48.435 5.702035 3.146174 32.085659  
2002-01-18 06:33:31 51°25.768 2°48.435 5.867363 3.146575 32.088521  
2002-01-18 06:33:37 51°25.782 2°48.434 5.869464 3.146675 32.087991  
2002-01-18 06:33:41 51°25.791 2°48.434 5.665515 3.146775 32.088292  
2002-01-18 06:33:47 51°25.805 2°48.434 5.750561 3.146975 32.088063  
2002-01-18 06:33:51 51°25.813 2°48.435 5.833591 3.147576 32.094014  
2002-01-18 06:33:56 51°25.824 2°48.436 5.833591 3.147576 32.094014  
2002-01-18 06:34:03 51°25.838 2°48.437 6.080035 3.147676 32.092655  
2002-01-18 06:34:07 51°25.846 2°48.438 5.918911 3.147877 32.093255  
2002-01-18 06:34:13 51°25.857 2°48.439 6.043035 3.148377 32.098905  
2002-01-18 06:34:17 51°25.865 2°48.439 6.290107 3.148678 32.097316  
2002-01-18 06:34:22 51°25.874 2°48.44 6.087163 3.149078 32.101836  
2002-01-18 06:34:27 51°25.883 2°48.44 6.087163 3.149078 32.101836  
2002-01-18 06:34:33 51°25.893 2°48.441 6.088708 3.149479 32.104696  
2002-01-18 06:34:37 51°25.899 2°48.441 6.293138 3.149679 32.105296  
2002-01-18 06:34:41 51°25.905 2°48.441 6.212301 3.149979 32.107025  
2002-01-18 06:34:45 51°25.912 2°48.441 6.051164 3.15048 32.111014  
2002-01-18 06:34:51 51°25.921 2°48.441 5.929556 3.15048 32.110185  
2002-01-18 06:34:57 51°25.929 2°48.441 5.929556 3.15048 32.110185  
2002-01-18 06:35:01 51°25.935 2°48.441 6.175726 3.15088 32.113044  
2002-01-18 06:35:05 51°25.941 2°48.44 6.340518 3.15088 32.112214  
2002-01-18 06:35:11 51°25.949 2°48.439 6.341412 3.151381 32.117032  
2002-01-18 06:35:17 51°25.956 2°48.438 6.098975 3.151982 32.12298  
2002-01-18 06:35:22 51°25.963 2°48.437 6.099474 3.152082 32.122449  
2002-01-18 06:35:26 51°25.968 2°48.436 6.099474 3.152082 32.122449  
2002-01-18 06:35:31 51°25.974 2°48.435 6.181301 3.151982 32.12049  
2002-01-18 06:35:37 51°25.981 2°48.434 6.059942 3.152583 32.125607  
2002-01-18 06:35:41 51°25.985 2°48.432 6.38697 3.152983 32.127635  
2002-01-18 06:35:47 51°25.992 2°48.431 6.061687 3.152683 32.123417  
2002-01-18 06:35:51 51°25.997 2°48.43 6.429868 3.153083 32.126275  
2002-01-18 06:35:55 51°26.001 2°48.429 6.429868 3.153083 32.126275  
2002-01-18 06:36:02 51°26.008 2°48.427 6.268142 3.153183 32.125745  
2002-01-18 06:36:06 51°26.013 2°48.426 6.104307 3.153684 32.129731  
2002-01-18 06:36:13 51°26.02 2°48.424 6.268191 3.153684 32.128902  
2002-01-18 06:36:17 51°26.024 2°48.423 6.065576 3.154385 32.135976  
2002-01-18 06:36:22 51°26.029 2°48.421 6.067122 3.154485 32.137106  
2002-01-18 06:36:27 51°26.034 2°48.42 6.067122 3.154485 32.137106  
2002-01-18 06:36:32 51°26.039 2°48.418 6.068668 3.154685 32.140194  
2002-01-18 06:36:37 51°26.043 2°48.417 6.190508 3.154785 32.139663  
2002-01-18 06:36:42 51°26.048 2°48.415 6.108493 3.154986 32.141922  
2002-01-18 06:36:47 51°26.053 2°48.414 6.150883 3.155086 32.142221  
2002-01-18 06:36:51 51°26.056 2°48.412 6.355609 3.155086 32.141391  
2002-01-18 06:36:58 51°26.063 2°48.41 6.355609 3.155086 32.141391  
2002-01-18 06:37:02 51°26.066 2°48.409 6.356601 3.155286 32.142819  
2002-01-18 06:37:05 51°26.069 2°48.408 6.39704 3.155286 32.142819  
2002-01-18 06:37:11 51°26.074 2°48.406 6.194688 3.155286 32.140329  
2002-01-18 06:37:17 51°26.079 2°48.404 6.032509 3.155787 32.145975  
2002-01-18 06:37:22 51°26.084 2°48.402 5.992985 3.155887 32.146274  
2002-01-18 06:37:27 51°26.088 2°48.4 5.992985 3.155887 32.146274  
2002-01-18 06:37:31 51°26.091 2°48.399 5.830588 3.155987 32.145743  
2002-01-18 06:37:37 51°26.096 2°48.396 6.40324 3.156187 32.147171  
2002-01-18 06:37:42 51°26.1 2°48.394 5.956284 3.156688 32.151986  
2002-01-18 06:37:47 51°26.104 2°48.393 5.955984 3.156387 32.147769  
2002-01-18 06:37:51 51°26.107 2°48.391 6.437651 3.156588 32.150027  
2002-01-18 06:37:57 51°26.112 2°48.389 6.437651 3.156588 32.150027  
2002-01-18 06:38:03 51°26.117 2°48.386 6.123141 3.156688 32.149496  
2002-01-18 06:38:07 51°26.12 2°48.385 6.163729 3.156888 32.150924  
2002-01-18 06:38:12 51°26.124 2°48.383 6.611901 3.156988 32.151223  
2002-01-18 06:38:17 51°26.128 2°48.381 6.042785 3.157189 32.153481  
2002-01-18 06:38:22 51°26.131 2°48.38 6.085069 3.156888 32.148434  
2002-01-18 06:38:27 51°26.135 2°48.378 6.085069 3.156888 32.148434  
2002-01-18 06:38:32 51°26.139 2°48.376 5.924658 3.156988 32.147904  
2002-01-18 06:38:37 51°26.142 2°48.375 5.842148 3.157489 32.151888  
2002-01-18 06:38:42 51°26.145 2°48.373 5.925258 3.157689 32.154145  
2002-01-18 06:38:47 51°26.149 2°48.372 5.84465 3.157689 32.152486  
2002-01-18 06:38:52 51°26.152 2°48.371 6.090453 3.15829 32.158428  
2002-01-18 06:38:58 51°26.156 2°48.369 6.090453 3.15829 32.158428  
2002-01-18 06:39:02 51°26.159 2°48.368 6.090303 3.15829 32.158428  
2002-01-18 06:39:07 51°26.162 2°48.367 5.682122 3.15849 32.159855  
2002-01-18 06:39:13 51°26.166 2°48.366 6.214838 3.15849 32.159025  
2002-01-18 06:39:17 51°26.168 2°48.366 5.971216 3.15849 32.157366  
2002-01-18 06:39:22 51°26.171 2°48.365 6.257306 3.15869 32.158793  
2002-01-18 06:39:27 51°26.174 2°48.364 6.257306 3.15869 32.158793  
2002-01-18 06:39:33 51°26.178 2°48.363 5.807462 3.159191 32.163606  
2002-01-18 06:39:36 51°26.179 2°48.363 5.969918 3.159191 32.163606  
2002-01-18 06:39:42 51°26.183 2°48.362 5.889817 3.159291 32.163075  
2002-01-18 06:39:47 51°26.186 2°48.362 5.767296 3.159592 32.16563  
2002-01-18 06:39:52 51°26.189 2°48.361 5.972315 3.159491 32.163672  
2002-01-18 06:39:57 51°26.192 2°48.361 5.972315 3.159491 32.163672  
2002-01-18 06:40:02 51°26.194 2°48.361 5.809114 3.159491 32.162842  
2002-01-18 06:40:07 51°26.197 2°48.36 6.014796 3.159892 32.168186  
2002-01-18 06:40:11 51°26.199 2°48.36 5.850654 3.160092 32.169613  
2002-01-18 06:40:18 51°26.203 2°48.36 6.138682 3.160192 32.171571  
2002-01-18 06:40:22 51°26.205 2°48.36 5.975261 3.160092 32.170443  
2002-01-18 06:40:26 51°26.207 2°48.36 5.975261 3.160092 32.170443  
2002-01-18 06:40:31 51°26.21 2°48.36 6.141122 3.160293 32.1727  
2002-01-18 06:40:36 51°26.213 2°48.36 6.427191 3.160393 32.172168  
2002-01-18 06:40:41 51°26.215 2°48.36 6.387565 3.160593 32.173595  
2002-01-18 06:40:46 51°26.218 2°48.36 6.185033 3.160493 32.171637  
2002-01-18 06:40:53 51°26.221 2°48.36 6.144808 3.160693 32.174723  
2002-01-18 06:40:57 51°26.223 2°48.361 6.144808 3.160693 32.174723  
2002-01-18 06:41:01 51°26.225 2°48.361 5.736629 3.15879 32.151625  
2002-01-18 06:41:06 51°26.228 2°48.361 6.145804 3.160893 32.17449  
2002-01-18 06:41:11 51°26.23 2°48.362 6.187124 3.160793 32.172532  
2002-01-18 06:41:17 51°26.233 2°48.362 5.900966 3.160593 32.169446  
2002-01-18 06:41:21 51°26.235 2°48.363 6.14685 3.160993 32.173129  
2002-01-18 06:41:26 51°26.237 2°48.363 6.14685 3.160993 32.173129  
2002-01-18 06:41:33 51°26.241 2°48.364 6.22956 3.161494 32.17794  
2002-01-18 06:41:37 51°26.243 2°48.364 6.636515 3.160993 32.171469  
2002-01-18 06:41:41 51°26.244 2°48.365 6.433388 3.161694 32.177707  
2002-01-18 06:41:47 51°26.247 2°48.366 6.39456 3.161394 32.174322  
2002-01-18 06:41:51 51°26.249 2°48.366 6.315293 3.161895 32.179134  
2002-01-18 06:41:56 51°26.252 2°48.367 6.315293 3.161895 32.179134  
2002-01-18 06:42:03 51°26.255 2°48.369 6.03196 3.161995 32.179432  
2002-01-18 06:42:06 51°26.256 2°48.369 6.073753 3.161995 32.180262  
2002-01-18 06:42:12 51°26.259 2°48.37 5.829237 3.161995 32.179432  
2002-01-18 06:42:17 51°26.261 2°48.371 6.116366 3.161995 32.178602  
2002-01-18 06:42:22 51°26.263 2°48.372 6.076495 3.162295 32.181156  
2002-01-18 06:42:27 51°26.265 2°48.373 6.076495 3.162295 32.181156  
2002-01-18 06:42:33 51°26.268 2°48.374 6.483587 3.162095 32.17807  
2002-01-18 06:42:37 51°26.269 2°48.375 5.955534 3.162495 32.180093  
2002-01-18 06:42:42 51°26.271 2°48.376 6.201156 3.162095 32.173922  
2002-01-18 06:42:47 51°26.274 2°48.377 6.364393 3.162696 32.17986  
2002-01-18 06:42:52 51°26.276 2°48.378 6.404182 3.162896 32.180457  
2002-01-18 06:42:57 51°26.278 2°48.379 6.404182 3.162896 32.180457  
2002-01-18 06:43:02 51°26.28 2°48.381 6.079636 3.162996 32.180755  
2002-01-18 06:43:07 51°26.282 2°48.382 5.874265 3.163196 32.182181  
2002-01-18 06:43:12 51°26.284 2°48.383 5.792491 3.163296 32.182479  
2002-01-18 06:43:17 51°26.286 2°48.384 6.038296 3.163096 32.178564  
2002-01-18 06:43:22 51°26.288 2°48.385 5.99633 3.163396 32.181948  
2002-01-18 06:43:26 51°26.29 2°48.386 5.99633 3.163396 32.181948  
2002-01-18 06:43:32 51°26.292 2°48.387 5.997228 3.163497 32.183075  
2002-01-18 06:43:37 51°26.294 2°48.389 6.323487 3.163597 32.185033  
2002-01-18 06:43:42 51°26.296 2°48.39 6.566751 3.163497 32.182246  
2002-01-18 06:43:47 51°26.298 2°48.391 6.079337 3.163697 32.183672  
2002-01-18 06:43:53 51°26.3 2°48.392 5.997727 3.163597 32.182544  
2002-01-18 06:43:57 51°26.302 2°48.393 5.997727 3.163597 32.182544  
2002-01-18 06:44:01 51°26.303 2°48.394 6.403439 3.163697 32.183672  
2002-01-18 06:44:07 51°26.306 2°48.395 6.199514 3.163697 32.184501  
2002-01-18 06:44:12 51°26.308 2°48.396 6.322692 3.163697 32.185331  
2002-01-18 06:44:18 51°26.31 2°48.398 6.645952 3.163697 32.18699  
2002-01-18 06:44:23 51°26.312 2°48.399 6.075947 3.163396 32.181118  
2002-01-18 06:44:27 51°26.313 2°48.4 6.075947 3.163396 32.181118  
2002-01-18 06:44:33 51°26.315 2°48.401 6.198022 3.163697 32.185331  
2002-01-18 06:44:37 51°26.317 2°48.402 5.829587 3.163897 32.188416  
2002-01-18 06:44:43 51°26.319 2°48.404 6.239457 3.163897 32.189246  
2002-01-18 06:44:47 51°26.321 2°48.404 5.583219 3.163797 32.188118  
2002-01-18 06:44:52 51°26.322 2°48.405 6.441022 3.163697 32.18699  
2002-01-18 06:44:57 51°26.324 2°48.406 6.441022 3.163697 32.18699  
2002-01-18 06:45:02 51°26.326 2°48.407 5.500966 3.163597 32.185862  
2002-01-18 06:45:07 51°26.328 2°48.409 6.278877 3.163597 32.186692  
2002-01-18 06:45:13 51°26.331 2°48.41 5.912514 3.163697 32.18782  
2002-01-18 06:45:17 51°26.332 2°48.411 5.914463 3.163497 32.187224  
2002-01-18 06:45:21 51°26.333 2°48.411 6.077492 3.163597 32.187522  
2002-01-18 06:45:27 51°26.335 2°48.412 6.077492 3.163597 32.187522  
2002-01-18 06:45:33 51°26.337 2°48.413 6.2406 3.163497 32.186394  
2002-01-18 06:45:37 51°26.339 2°48.414 5.997028 3.163396 32.186096  
2002-01-18 06:45:41 51°26.34 2°48.415 5.83244 3.163396 32.186096  
2002-01-18 06:45:47 51°26.342 2°48.416 5.46146 3.163597 32.188352  
2002-01-18 06:45:51 51°26.344 2°48.417 6.077442 3.163597 32.186692  
2002-01-18 06:45:57 51°26.346 2°48.418 6.077442 3.163597 32.186692  
2002-01-18 06:46:01 51°26.347 2°48.418 5.954086 3.163697 32.18782  
2002-01-18 06:46:07 51°26.35 2°48.42 6.685516 3.163597 32.185862  
2002-01-18 06:46:11 51°26.351 2°48.42 6.27997 3.163897 32.188416  
2002-01-18 06:46:17 51°26.353 2°48.422 5.790738 3.164097 32.191502  
2002-01-18 06:46:21 51°26.354 2°48.422 6.1589 3.163897 32.189246  
2002-01-18 06:46:27 51°26.356 2°48.423 6.1589 3.163897 32.189246  
2002-01-18 06:46:33 51°26.358 2°48.425 5.995531 3.163897 32.190076  
2002-01-18 06:46:37 51°26.359 2°48.425 6.445186 3.164097 32.191502  
2002-01-18 06:46:43 51°26.361 2°48.427 6.647583 3.163997 32.190374  
2002-01-18 06:46:47 51°26.363 2°48.427 6.323735 3.163897 32.188416  
2002-01-18 06:46:51 51°26.364 2°48.428 6.444987 3.164097 32.191502  
2002-01-18 06:46:57 51°26.366 2°48.429 6.444987 3.164097 32.191502  
2002-01-18 06:47:01 51°26.368 2°48.43 6.162136 3.164097 32.190672  
2002-01-18 06:47:05 51°26.369 2°48.431 6.406613 3.163897 32.188416  
2002-01-18 06:47:13 51°26.372 2°48.433 6.366776 3.163997 32.188714  
2002-01-18 06:47:17 51°26.373 2°48.433 6.326566 3.163997 32.188714  
2002-01-18 06:47:21 51°26.374 2°48.434 6.446722 3.164298 32.191268  
2002-01-18 06:47:27 51°26.376 2°48.435 6.446722 3.164298 32.191268  
2002-01-18 06:47:31 51°26.378 2°48.436 6.039194 3.164498 32.192693  
2002-01-18 06:47:37 51°26.38 2°48.437 5.916812 3.164198 32.19014  
2002-01-18 06:47:41 51°26.381 2°48.438 6.164874 3.164198 32.188481  
2002-01-18 06:47:47 51°26.383 2°48.439 5.877666 3.164698 32.193289  
2002-01-18 06:47:52 51°26.385 2°48.44 6.327062 3.164498 32.191034  
2002-01-18 06:47:57 51°26.386 2°48.441 6.327062 3.164498 32.191034  
2002-01-18 06:48:01 51°26.388 2°48.442 6.000522 3.164398 32.190736  
2002-01-18 06:48:07 51°26.39 2°48.443 6.450538 3.164398 32.189077  
2002-01-18 06:48:11 51°26.391 2°48.444 5.836994 3.164498 32.190204  
2002-01-18 06:48:17 51°26.393 2°48.445 6.206281 3.164398 32.189077  
2002-01-18 06:48:21 51°26.394 2°48.446 6.083773 3.164698 32.19246  
2002-01-18 06:48:27 51°26.396 2°48.447 6.083773 3.164698 32.19246  
2002-01-18 06:48:32 51°26.398 2°48.449 6.122792 3.164598 32.191332  
2002-01-18 06:48:37 51°26.4 2°48.449 5.836093 3.164197 32.187651  
2002-01-18 06:48:43 51°26.402 2°48.451 6.205385 3.164698 32.193289  
2002-01-18 06:48:47 51°26.403 2°48.452 6.082228 3.164598 32.189673  
2002-01-18 06:48:53 51°26.406 2°48.454 6.042187 3.164698 32.193289  
2002-01-18 06:48:57 51°26.407 2°48.455 6.042187 3.164698 32.193289  
2002-01-18 06:49:03 51°26.41 2°48.456 6.073404 3.164698 32.1908  
2002-01-18 06:49:07 51°26.412 2°48.458 6.041189 3.164798 32.192758  
2002-01-18 06:49:13 51°26.414 2°48.459 6.082577 3.164698 32.19246  
2002-01-18 06:49:17 51°26.416 2°48.461 6.652721 3.164798 32.192758  
2002-01-18 06:49:22 51°26.418 2°48.462 6.246567 3.164698 32.19163  
2002-01-18 06:49:27 51°26.421 2°48.464 6.246567 3.164698 32.19163  
2002-01-18 06:49:33 51°26.424 2°48.467 6.12623 3.164498 32.190204  
2002-01-18 06:49:37 51°26.425 2°48.468 6.290355 3.164598 32.192162  
2002-01-18 06:49:42 51°26.428 2°48.471 6.332226 3.164798 32.192758